Time;durP1;ratioP1;P1;durP2;ratioP2;P2;SDS_P1;SDS_P2;PMS_P1;PMS_P2;Temp;Humidity;BMP_temperature;BMP_pressure;BME280_temperature;BME280_humidity;BME280_pressure;Samples;Min_cycle;Max_cycle;Signal;HPM_P1;HPM_P2
2023/08/13 00:03:54;;;;;;;;;;;;;;;16.39;81.58;98104.41;10380307;28;20029;-51
2023/08/13 00:08:53;;;;;;;11.27;8.10;;;;;;;16.29;81.67;98106.31;10379561;28;19917;-51
2023/08/13 00:13:52;;;;;;;;;;;;;;;16.16;82.46;98103.09;10379695;28;20036;-51
2023/08/13 00:18:51;;;;;;;12.13;8.73;;;;;;;16.15;82.00;98101.34;10380154;28;19909;-50
2023/08/13 00:23:50;;;;;;;;;;;;;;;16.15;82.20;98101.34;10379533;28;20167;-48
2023/08/13 00:28:49;;;;;;;9.93;8.27;;;;;;;15.99;82.02;98066.72;10379379;28;19948;-51
2023/08/13 00:33:48;;;;;;;;;;;;;;;16.15;82.10;98105.72;10379074;28;20107;-49
2023/08/13 00:38:46;;;;;;;16.03;12.03;;;;;;;16.19;82.10;98102.16;10378692;28;20367;-51
2023/08/13 00:43:45;;;;;;;;;;;;;;;16.21;82.00;98100.38;10378668;28;20531;-50
2023/08/13 00:48:45;;;;;;;15.47;10.70;;;;;;;16.26;81.68;98109.00;10377841;28;20388;-48
2023/08/13 00:53:48;;;;;;;12.07;8.38;;;;;;;16.21;83.04;98108.25;10377823;28;20059;-51
2023/08/13 00:58:47;;;;;;;9.73;8.20;;;;;;;16.20;82.64;98102.13;10376440;28;20027;-49
2023/08/13 01:03:46;;;;;;;9.52;7.90;;;;;;;16.21;82.47;98097.75;10374014;28;20060;-50
2023/08/13 01:09:13;;;;;;;12.20;8.43;;;;;;;16.22;82.58;98094.25;10373415;28;20080;-50
2023/08/13 01:14:26;;;;;;;9.70;7.68;;;;;;;15.94;84.02;98092.09;10373262;28;20060;-52
2023/08/13 01:19:25;;;;;;;9.32;8.38;;;;;;;15.79;83.67;98082.78;10373691;28;20051;-49
2023/08/13 01:24:24;;;;;;;10.75;8.93;;;;;;;15.68;84.46;98098.59;10373477;28;20064;-49
2023/08/13 01:29:35;;;;;;;;;;;;;;;15.64;84.11;98099.53;10373551;28;20025;-50
2023/08/13 01:34:34;;;;;;;10.23;8.32;;;;;;;15.65;83.84;98097.81;10374098;28;19955;-51
2023/08/13 01:39:33;;;;;;;9.85;8.50;;;;;;;15.57;83.97;98102.28;10373510;28;20044;-51
2023/08/13 01:44:32;;;;;;;10.05;8.60;;;;;;;15.53;84.13;98096.25;10373220;28;20068;-51
2023/08/13 01:49:32;;;;;;;;;;;;;;;15.52;84.59;98093.63;10373118;28;20107;-52
2023/08/13 01:54:31;;;;;;;9.68;8.40;;;;;;;15.43;84.23;98089.41;10371676;28;19944;-52
2023/08/13 01:59:30;;;;;;;;;;;;;;;15.44;84.40;98092.00;10375225;28;20446;-51
2023/08/13 02:04:29;;;;;;;12.10;8.60;;;;;;;15.42;84.05;98096.38;10380784;28;19951;-50
2023/08/13 02:09:27;;;;;;;;;;;;;;;15.37;84.64;98095.59;10380094;28;20037;-49
2023/08/13 02:14:27;;;;;;;13.27;9.53;;;;;;;15.36;84.60;98091.25;10381069;28;19960;-51
2023/08/13 02:19:26;;;;;;;14.45;11.38;;;;;;;15.32;84.56;98092.19;10380376;28;20433;-50
2023/08/13 02:24:25;;;;;;;;;;;;;;;15.29;85.12;98094.84;10380520;28;20479;-50
2023/08/13 02:29:24;;;;;;;15.67;11.67;;;;;;;15.27;85.39;98087.91;10379982;28;19951;-49
2023/08/13 02:34:23;;;;;;;;;;;;;;;15.20;85.49;98095.84;10380591;28;20036;-52
2023/08/13 02:39:22;;;;;;;11.53;9.67;;;;;;;14.95;85.57;98060.47;10379800;28;19948;-52
2023/08/13 02:44:21;;;;;;;;;;;;;;;15.15;85.40;98095.03;10380005;28;20025;-51
2023/08/13 02:49:19;;;;;;;12.90;9.70;;;;;;;15.14;85.82;98109.00;10379496;28;19947;-50
2023/08/13 02:54:18;;;;;;;11.45;9.55;;;;;;;14.93;85.82;98081.41;10378529;28;20032;-52
2023/08/13 02:59:17;;;;;;;;;;;;;;;15.04;86.07;98107.41;10379050;28;20556;-53
2023/08/13 03:04:16;;;;;;;13.40;9.55;;;;;;;15.02;86.21;98106.56;10378525;28;20354;-50
2023/08/13 03:09:22;;;;;;;;;;;;;;;15.01;86.47;98107.41;10378439;28;20516;-51
2023/08/13 03:14:21;;;;;;;13.38;10.35;;;;;;;14.98;86.11;98102.25;10376758;28;19948;-53
2023/08/13 03:19:20;;;;;;;12.90;10.05;;;;;;;14.93;86.59;98107.53;10378286;28;20056;-53
2023/08/13 03:24:19;;;;;;;;;;;;;;;14.97;86.64;98116.22;10378321;28;20032;-52
2023/08/13 03:29:18;;;;;;;13.15;9.93;;;;;;;14.95;86.70;98117.97;10377126;28;19913;-52
2023/08/13 03:34:16;;;;;;;;;;;;;;;14.93;86.92;98119.75;10378243;28;20102;-51
2023/08/13 03:39:15;;;;;;;11.18;8.43;;;;;;;14.85;87.47;98111.13;10377373;28;19999;-52
2023/08/13 03:44:14;;;;;;;;;;;;;;;14.90;87.02;98114.56;10378244;28;20028;-51
2023/08/13 03:49:13;;;;;;;13.50;10.00;;;;;;;14.91;87.24;98111.06;10376558;28;20403;-50
2023/08/13 03:54:12;;;;;;;;;;;;;;;14.89;87.87;98116.28;10377422;28;20159;-51
2023/08/13 03:59:11;;;;;;;12.60;10.80;;;;;;;14.74;87.98;98119.09;10376703;28;19967;-51
2023/08/13 04:04:09;;;;;;;;;;;;;;;14.73;87.70;98127.81;10377007;28;20116;-50
2023/08/13 04:09:08;;;;;;;12.70;10.00;;;;;;;14.76;87.65;98128.66;10376627;28;19925;-52
2023/08/13 04:14:07;;;;;;;;;;;;;;;14.73;87.99;98131.31;10376221;28;20028;-49
2023/08/13 04:19:06;;;;;;;10.13;8.25;;;;;;;14.65;87.84;98114.81;10376331;28;20156;-52
2023/08/13 04:24:05;;;;;;;15.23;8.82;;;;;;;14.93;87.23;98135.41;10375192;28;20060;-49
2023/08/13 04:29:04;;;;;;;10.55;8.40;;;;;;;15.06;87.14;98141.34;10375337;28;20057;-51
2023/08/13 04:34:03;;;;;;;;;;;;;;;15.22;86.17;98154.22;10375552;28;20071;-52
2023/08/13 04:39:02;;;;;;;13.63;9.20;;;;;;;15.24;85.49;98141.97;10375918;28;19932;-51
2023/08/13 04:44:01;;;;;;;11.55;9.63;;;;;;;15.46;85.30;98147.78;10375182;28;20570;-49
2023/08/13 04:49:00;;;;;;;;;;;;;;;15.59;84.31;98156.28;10374909;28;20530;-52
2023/08/13 04:53:59;;;;;;;11.20;8.77;;;;;;;15.69;84.25;98159.63;10374135;28;20396;-53
2023/08/13 04:58:58;;;;;;;;;;;;;;;15.76;83.88;98166.50;10375938;28;20025;-49
2023/08/13 05:03:57;;;;;;;10.82;8.65;;;;;;;15.73;84.10;98163.94;10375995;28;20370;-52
2023/08/13 05:08:56;;;;;;;;;;;;;;;15.85;83.87;98170.78;10376654;28;20037;-50
2023/08/13 05:13:55;;;;;;;10.65;8.95;;;;;;;16.00;83.33;98169.69;10377243;28;19939;-52
2023/08/13 05:18:54;;;;;;;;;;;;;;;16.12;83.71;98179.09;10378131;28;20492;-52
2023/08/13 05:23:54;;;;;;;11.90;9.80;;;;;;;16.22;83.71;98180.66;10377008;28;20435;-51
2023/08/13 05:28:53;;;;;;;10.98;9.68;;;;;;;16.37;83.31;98180.41;10377120;28;20075;-52
2023/08/13 05:33:53;;;;;;;12.77;9.77;;;;;;;16.49;83.14;98177.56;10376188;28;20088;-52
2023/08/13 05:38:52;;;;;;;11.02;9.65;;;;;;;16.62;82.83;98183.44;10376900;28;20513;-49
2023/08/13 05:43:52;;;;;;;10.65;8.32;;;;;;;16.68;82.77;98191.19;10376510;28;20033;-50
2023/08/13 05:48:51;;;;;;;11.60;8.63;;;;;;;16.83;81.92;98182.19;10376837;28;20064;-50
2023/08/13 05:53:49;;;;;;;10.60;8.93;;;;;;;17.16;81.61;98182.41;10376519;28;20064;-53
2023/08/13 05:58:48;;;;;;;9.80;8.40;;;;;;;17.30;80.83;98180.34;10375401;28;20064;-51
2023/08/13 06:03:47;;;;;;;11.45;8.95;;;;;;;17.55;79.81;98185.09;10372154;28;20116;-52
2023/08/13 06:08:46;;;;;;;11.07;8.38;;;;;;;17.75;78.86;98179.38;10372183;28;20033;-51
2023/08/13 06:13:45;;;;;;;9.15;8.18;;;;;;;17.96;76.91;98178.03;10372458;28;20762;-50
2023/08/13 06:18:44;;;;;;;10.07;8.15;;;;;;;18.11;76.28;98180.31;10371418;28;20017;-50
2023/08/13 06:23:43;;;;;;;9.90;7.68;;;;;;;18.29;75.89;98180.72;10372256;28;20115;-52
2023/08/13 06:28:42;;;;;;;10.38;6.97;;;;;;;18.68;75.35;98170.97;10372129;28;20065;-51
2023/08/13 06:33:41;;;;;;;10.82;8.00;;;;;;;18.89;73.82;98173.94;10371594;28;20029;-52
2023/08/13 06:38:40;;;;;;;10.52;7.70;;;;;;;19.12;72.00;98157.50;10372157;28;20079;-51
2023/08/13 06:43:39;;;;;;;11.30;7.10;;;;;;;19.36;71.36;98146.25;10371933;28;20527;-49
2023/08/13 06:48:38;;;;;;;10.88;7.35;;;;;;;19.82;69.54;98165.94;10377729;28;20064;-50
2023/08/13 06:53:37;;;;;;;11.70;7.00;;;;;;;19.99;68.11;98169.78;10379348;28;20491;-52
2023/08/13 06:58:36;;;;;;;9.57;6.32;;;;;;;20.09;66.29;98152.75;10378739;28;20049;-49
2023/08/13 07:03:35;;;;;;;8.02;5.38;;;;;;;20.22;63.81;98167.25;10378662;28;20033;-51
2023/08/13 07:08:34;;;;;;;5.85;5.15;;;;;;;20.40;63.36;98165.81;10378450;28;20079;-50
2023/08/13 07:13:33;;;;;;;7.07;5.30;;;;;;;20.46;61.47;98165.59;10378392;28;20075;-51
2023/08/13 07:18:32;;;;;;;5.72;4.75;;;;;;;20.53;60.86;98158.34;10378188;28;20060;-52
2023/08/13 07:23:31;;;;;;;11.52;5.28;;;;;;;20.91;59.29;98157.00;10377998;28;20068;-52
2023/08/13 07:28:32;;;;;;;6.55;4.68;;;;;;;21.12;58.99;98159.72;10378417;28;20037;-52
2023/08/13 07:33:32;;;;;;;5.22;4.30;;;;;;;21.46;56.96;98158.50;10377648;28;20071;-51
2023/08/13 07:38:32;;;;;;;5.50;4.25;;;;;;;21.57;54.97;98143.09;10377494;28;20083;-52
2023/08/13 07:43:32;;;;;;;6.45;4.80;;;;;;;21.74;54.74;98137.16;10377151;28;20079;-48
2023/08/13 07:48:30;;;;;;;7.15;4.63;;;;;;;22.07;54.61;98144.66;10375742;28;20480;-52
2023/08/13 07:53:31;;;;;;;5.75;4.85;;;;;;;22.36;55.42;98136.34;10376830;28;20463;-53
2023/08/13 07:58:30;;;;;;;7.38;5.43;;;;;;;22.75;55.40;98132.94;10376457;28;20080;-52
2023/08/13 08:03:29;;;;;;;7.45;4.85;;;;;;;23.02;54.65;98127.31;10379635;28;20025;-51
2023/08/13 08:08:28;;;;;;;6.05;4.78;;;;;;;23.29;53.04;98132.28;10379246;28;20435;-51
2023/08/13 08:13:27;;;;;;;10.00;6.03;;;;;;;23.57;52.18;98127.44;10379735;28;20076;-51
2023/08/13 08:18:28;;;;;;;7.70;4.68;;;;;;;23.87;51.04;98111.00;10380141;28;20041;-49
2023/08/13 08:23:27;;;;;;;8.63;5.20;;;;;;;24.03;50.26;98105.78;10379396;28;20492;-51
2023/08/13 08:28:26;;;;;;;5.35;4.68;;;;;;;24.18;50.96;98104.19;10378915;28;20029;-53
2023/08/13 08:33:25;;;;;;;6.95;4.93;;;;;;;24.44;49.45;98093.09;10378712;28;20459;-49
2023/08/13 08:38:24;;;;;;;7.63;5.05;;;;;;;24.69;49.36;98087.34;10379420;28;20040;-52
2023/08/13 08:43:28;;;;;;;5.13;4.30;;;;;;;24.78;48.06;98093.97;10378638;28;20035;-51
2023/08/13 08:48:29;;;;;;;6.70;4.80;;;;;;;24.90;48.29;98088.03;10378592;28;20068;-50
2023/08/13 08:53:29;;;;;;;5.13;4.20;;;;;;;25.08;48.56;98083.53;10377837;28;20064;-52
2023/08/13 08:58:28;;;;;;;5.32;4.18;;;;;;;25.14;46.69;98086.78;10377023;28;20052;-50
2023/08/13 09:03:27;;;;;;;6.85;4.28;;;;;;;25.17;47.09;98071.53;10373200;28;20040;-52
2023/08/13 09:08:26;;;;;;;4.65;4.22;;;;;;;25.49;46.22;98076.84;10373903;28;20084;-52
2023/08/13 09:13:25;;;;;;;5.82;4.10;;;;;;;25.73;44.63;98069.31;10373684;28;20443;-49
2023/08/13 09:18:24;;;;;;;10.52;4.60;;;;;;;26.19;44.25;98061.28;10372724;28;20120;-51
2023/08/13 09:23:25;;;;;;;7.00;4.35;;;;;;;25.83;42.81;98069.63;10373020;28;20098;-50
2023/08/13 09:28:24;;;;;;;5.13;3.95;;;;;;;26.20;43.23;98051.53;10373029;28;20473;-51
2023/08/13 09:33:23;;;;;;;11.25;6.70;;;;;;;26.49;41.65;98055.97;10373564;28;20064;-50
2023/08/13 09:38:22;;;;;;;11.63;7.95;;;;;;;26.60;40.28;98046.44;10373087;28;20060;-51
2023/08/13 09:43:24;;;;;;;6.15;4.28;;;;;;;26.80;39.57;98046.09;10372996;28;20464;-52
2023/08/13 09:48:26;;;;;;;6.75;4.18;;;;;;;26.97;39.06;98053.03;10373207;28;20075;-52
2023/08/13 09:53:26;;;;;;;5.10;3.88;;;;;;;26.77;38.82;98030.31;10372748;28;20463;-52
2023/08/13 09:58:25;;;;;;;4.88;4.03;;;;;;;26.91;38.61;98040.97;10373104;28;20081;-53
2023/08/13 10:03:24;;;;;;;6.03;4.20;;;;;;;27.03;38.36;98034.00;10373483;28;20064;-52
2023/08/13 10:08:24;;;;;;;5.78;4.20;;;;;;;26.98;38.48;98036.13;10372590;28;20080;-52
2023/08/13 10:13:23;;;;;;;5.30;4.60;;;;;;;26.88;38.77;98027.81;10372486;28;20086;-50
2023/08/13 10:18:23;;;;;;;5.80;3.83;;;;;;;27.01;38.31;98038.56;10372742;28;20094;-51
2023/08/13 10:23:22;;;;;;;5.88;3.88;;;;;;;26.93;38.10;98031.09;10379113;28;20064;-52
2023/08/13 10:28:27;;;;;;;5.05;4.05;;;;;;;26.88;36.94;98038.47;10380035;28;20056;-49
2023/08/13 10:33:29;;;;;;;10.27;5.00;;;;;;;26.88;38.01;98038.47;10379998;28;20076;-52
2023/08/13 10:38:34;;;;;;;8.18;5.00;;;;;;;26.61;39.03;98029.56;10379667;28;20077;-49
2023/08/13 10:43:33;;;;;;;5.40;4.15;;;;;;;26.60;38.76;98025.16;10378903;28;20095;-51
2023/08/13 10:48:32;;;;;;;5.55;4.22;;;;;;;26.69;38.18;98016.59;10379336;28;20072;-52
2023/08/13 10:53:33;;;;;;;6.72;3.95;;;;;;;26.88;38.49;98021.66;10378929;28;20035;-51
2023/08/13 10:58:35;;;;;;;6.57;4.35;;;;;;;26.75;37.89;98003.78;10378912;28;20068;-53
2023/08/13 11:03:34;;;;;;;7.53;4.55;;;;;;;26.85;37.86;97997.91;10378284;28;20049;-52
2023/08/13 11:08:33;;;;;;;7.65;5.15;;;;;;;26.98;37.96;98014.81;10377827;28;20427;-52
2023/08/13 11:13:32;;;;;;;8.13;4.40;;;;;;;26.91;38.46;98019.66;10373834;28;20060;-49
2023/08/13 11:18:31;;;;;;;5.00;4.22;;;;;;;26.87;38.16;98004.84;10377863;28;20071;-49
2023/08/13 11:23:31;;;;;;;4.90;3.88;;;;;;;26.91;39.07;97992.16;10377840;28;20036;-50
2023/08/13 11:28:30;;;;;;;5.82;4.13;;;;;;;26.64;37.46;97968.97;10377688;28;20075;-53
2023/08/13 11:33:29;;;;;;;5.80;4.30;;;;;;;27.08;38.06;97985.78;10376296;28;20029;-52
2023/08/13 11:38:28;;;;;;;7.20;4.78;;;;;;;27.66;36.85;97981.97;10377445;28;20474;-51
2023/08/13 11:43:29;;;;;;;6.13;4.55;;;;;;;27.75;36.91;97981.34;10377088;28;20057;-52
2023/08/13 11:48:30;;;;;;;7.18;4.38;;;;;;;28.03;37.17;97974.13;10377195;28;20080;-50
2023/08/13 11:53:29;;;;;;;5.30;4.32;;;;;;;28.66;35.76;97967.94;10376833;28;20072;-50
2023/08/13 11:58:29;;;;;;;5.03;4.40;;;;;;;28.63;34.95;97973.47;10377033;28;20106;-53
2023/08/13 12:03:38;;;;;;;10.60;5.32;;;;;;;28.05;35.62;97969.53;10376750;28;20092;-52
2023/08/13 12:08:42;;;;;;;5.18;4.32;;;;;;;27.61;35.83;97941.41;10370676;28;20084;-52
2023/08/13 12:13:41;;;;;;;5.85;4.70;;;;;;;27.93;35.09;97983.72;10375993;28;20063;-50
2023/08/13 12:18:40;;;;;;;7.13;4.97;;;;;;;28.24;35.62;97971.81;10376558;28;20070;-48
2023/08/13 12:23:39;;;;;;;8.95;4.28;;;;;;;28.65;35.55;97976.06;10375664;28;20064;-49
2023/08/13 12:28:38;;;;;;;6.95;5.15;;;;;;;28.87;33.63;97964.69;10376034;28;20058;-52
2023/08/13 12:33:37;;;;;;;7.32;4.32;;;;;;;29.07;33.82;97961.44;10375230;28;20047;-52
2023/08/13 12:38:39;;;;;;;5.88;4.32;;;;;;;29.37;31.64;97956.63;10375360;28;20056;-50
2023/08/13 12:43:38;;;;;;;5.18;4.20;;;;;;;29.39;31.68;97954.69;10376017;28;20065;-53
2023/08/13 12:48:38;;;;;;;6.75;4.55;;;;;;;29.24;32.22;97951.31;10374831;28;20159;-54
2023/08/13 12:53:38;;;;;;;6.35;4.60;;;;;;;29.28;32.51;97943.00;10374749;28;20527;-50
2023/08/13 12:58:37;;;;;;;5.70;4.15;;;;;;;29.65;31.78;97945.56;10375605;28;20060;-50
2023/08/13 13:03:36;;;;;;;6.18;4.50;;;;;;;29.41;30.78;97929.56;10378426;28;20412;-51
2023/08/13 13:08:35;;;;;;;5.32;4.07;;;;;;;29.40;30.98;97930.53;10377185;28;20384;-52
2023/08/13 13:13:35;;;;;;;6.05;4.25;;;;;;;29.23;31.05;97934.44;10377193;28;20033;-52
2023/08/13 13:18:34;;;;;;;6.00;4.10;;;;;;;28.98;32.33;97943.41;10378182;28;20443;-50
2023/08/13 13:23:33;;;;;;;6.72;4.22;;;;;;;28.39;33.90;97895.16;10377020;28;20385;-52
2023/08/13 13:28:32;;;;;;;5.82;4.93;;;;;;;28.51;34.00;97942.31;10377233;28;20511;-53
2023/08/13 13:33:31;;;;;;;4.63;4.15;;;;;;;28.24;35.19;97948.66;10376974;28;20543;-52
2023/08/13 13:38:30;;;;;;;8.68;4.55;;;;;;;28.35;34.82;97939.88;10376847;28;20365;-52
2023/08/13 13:43:29;;;;;;;5.88;4.07;;;;;;;28.28;34.14;97937.75;10376591;28;20049;-49
2023/08/13 13:48:28;;;;;;;6.72;4.57;;;;;;;28.46;34.81;97915.13;10376803;28;20057;-48
2023/08/13 13:53:27;;;;;;;5.60;4.18;;;;;;;28.73;34.33;97922.13;10376432;28;20052;-50
2023/08/13 13:58:25;;;;;;;6.25;4.18;;;;;;;28.97;33.54;97927.47;10382282;28;20029;-52
2023/08/13 14:03:24;;;;;;;4.78;4.10;;;;;;;29.02;33.40;97926.19;10381357;28;20116;-51
2023/08/13 14:08:23;;;;;;;6.07;4.20;;;;;;;28.76;33.77;97927.22;10380818;28;20134;-48
2023/08/13 14:13:22;;;;;;;6.72;4.07;;;;;;;28.51;33.89;97872.91;10380535;28;20039;-52
2023/08/13 14:18:21;;;;;;;5.45;3.78;;;;;;;28.85;33.67;97919.44;10381219;28;20041;-52
2023/08/13 14:23:20;;;;;;;4.68;4.20;;;;;;;28.80;34.15;97915.38;10380159;28;20032;-51
2023/08/13 14:28:19;;;;;;;13.25;5.03;;;;;;;28.83;34.41;97909.81;10380388;28;20064;-49
2023/08/13 14:33:18;;;;;;;6.20;4.25;;;;;;;28.92;34.37;97919.81;10379923;28;20037;-51
2023/08/13 14:38:18;;;;;;;4.82;3.90;;;;;;;28.49;32.55;97900.69;10379659;28;20029;-51
2023/08/13 14:43:17;;;;;;;4.80;4.05;;;;;;;28.53;32.72;97892.34;10378364;28;20075;-53
2023/08/13 14:48:16;;;;;;;8.35;4.18;;;;;;;28.65;33.09;97917.31;10379456;28;20033;-52
2023/08/13 14:53:15;;;;;;;5.43;4.20;;;;;;;28.90;32.31;97913.75;10379165;28;20037;-49
2023/08/13 14:58:13;;;;;;;6.53;3.75;;;;;;;29.02;32.16;97912.84;10379054;28;20057;-52
2023/08/13 15:03:12;;;;;;;5.93;3.85;;;;;;;28.74;31.87;97919.34;10379206;28;20108;-52
2023/08/13 15:08:11;;;;;;;5.72;4.05;;;;;;;28.55;33.11;97916.25;10378477;28;20136;-54
2023/08/13 15:13:10;;;;;;;6.78;4.38;;;;;;;28.30;33.62;97896.66;10378597;28;20461;-49
2023/08/13 15:18:09;;;;;;;4.88;4.10;;;;;;;28.58;33.19;97906.22;10378709;28;20033;-52
2023/08/13 15:23:08;;;;;;;4.95;4.07;;;;;;;28.70;32.60;97914.34;10377960;28;20406;-53
2023/08/13 15:28:07;;;;;;;3.90;3.50;;;;;;;28.67;32.13;97910.06;10378062;28;20120;-53
2023/08/13 15:33:06;;;;;;;5.68;4.13;;;;;;;28.66;32.21;97911.00;10377482;28;20021;-49
2023/08/13 15:38:05;;;;;;;5.25;3.83;;;;;;;28.66;32.37;97911.88;10377340;28;20064;-53
2023/08/13 15:43:04;;;;;;;5.50;4.25;;;;;;;28.59;32.53;97901.72;10376895;28;20103;-52
2023/08/13 15:48:03;;;;;;;6.60;3.75;;;;;;;28.59;33.19;97912.41;10376963;28;20115;-52
2023/08/13 15:53:03;;;;;;;6.20;4.45;;;;;;;28.49;33.54;97916.72;10376908;28;20071;-52
2023/08/13 15:58:02;;;;;;;6.53;4.55;;;;;;;28.47;34.11;97911.47;10377196;28;20072;-51
2023/08/13 16:03:01;;;;;;;5.03;4.18;;;;;;;28.43;33.34;97908.19;10376718;28;20056;-52
2023/08/13 16:08:00;;;;;;;6.25;4.57;;;;;;;28.39;33.32;97908.50;10377175;28;20111;-51
2023/08/13 16:12:59;;;;;;;7.90;4.45;;;;;;;28.32;33.48;97891.22;10375876;28;20033;-49
2023/08/13 16:17:58;;;;;;;4.65;4.07;;;;;;;28.56;33.26;97907.28;10375638;28;20048;-50
2023/08/13 16:22:57;;;;;;;5.57;3.90;;;;;;;28.20;33.37;97848.44;10375791;28;20029;-52
2023/08/13 16:27:57;;;;;;;5.28;4.00;;;;;;;28.61;32.74;97905.13;10374455;28;20125;-51
2023/08/13 16:32:56;;;;;;;6.32;4.00;;;;;;;28.52;32.40;97901.31;10375531;28;20073;-51
2023/08/13 16:37:55;;;;;;;4.70;4.10;;;;;;;28.49;33.39;97901.53;10374856;28;20115;-52
2023/08/13 16:42:54;;;;;;;5.55;3.75;;;;;;;28.35;32.92;97909.69;10375797;28;20078;-51
2023/08/13 16:47:54;;;;;;;5.55;3.88;;;;;;;28.24;33.67;97911.31;10374826;28;20064;-52
2023/08/13 16:52:53;;;;;;;6.07;4.38;;;;;;;28.06;34.33;97920.56;10374427;28;20067;-51
2023/08/13 16:57:52;;;;;;;5.05;4.53;;;;;;;27.91;35.20;97921.63;10374163;28;20095;-51
2023/08/13 17:02:52;;;;;;;6.55;4.85;;;;;;;27.68;34.81;97934.72;10374040;28;20028;-52
2023/08/13 17:07:51;;;;;;;6.68;4.85;;;;;;;27.34;35.52;97936.09;10373915;28;20091;-50
2023/08/13 17:12:50;;;;;;;6.32;5.05;;;;;;;27.20;36.52;97939.69;10373992;28;20076;-52
2023/08/13 17:17:49;;;;;;;7.88;4.57;;;;;;;27.03;36.46;97934.63;10373323;28;20043;-52
2023/08/13 17:22:49;;;;;;;7.05;4.72;;;;;;;26.52;36.93;97914.72;10373752;28;20069;-51
2023/08/13 17:27:48;;;;;;;7.05;4.70;;;;;;;26.51;37.13;97942.28;10372788;28;20060;-52
2023/08/13 17:32:47;;;;;;;8.77;5.18;;;;;;;26.25;38.94;97953.69;10361616;28;20068;-49
2023/08/13 17:37:48;;;;;;;9.93;5.65;;;;;;;25.92;40.18;97958.25;10362744;28;20033;-50
2023/08/13 17:42:47;;;;;;;17.20;9.23;;;;;;;25.56;41.28;97956.00;10371477;28;20428;-52
2023/08/13 17:47:45;;;;;;;20.23;12.68;;;;;;;25.25;42.87;97963.06;10369239;28;20198;-49
2023/08/13 17:52:44;;;;;;;20.95;14.13;;;;;;;24.96;43.50;97962.06;10354924;28;20488;-53
2023/08/13 17:57:43;;;;;;;20.50;12.27;;;;;;;24.72;43.70;97971.38;10371427;28;20579;-52
2023/08/13 18:02:43;;;;;;;16.08;12.43;;;;;;;24.45;43.79;97962.19;10375747;28;20415;-51
2023/08/13 18:07:41;;;;;;;16.30;11.68;;;;;;;24.22;44.46;97975.81;10371666;28;20037;-51
2023/08/13 18:12:41;;;;;;;10.02;7.35;;;;;;;23.96;45.22;97980.66;10374880;28;20151;-53
2023/08/13 18:17:40;;;;;;;12.48;7.10;;;;;;;23.69;45.35;97987.34;10374729;28;20457;-51
2023/08/13 18:22:42;;;;;;;9.02;6.53;;;;;;;23.58;45.29;97986.13;10375256;28;20518;-52
2023/08/13 18:27:41;;;;;;;8.73;5.82;;;;;;;23.36;47.02;98009.25;10375214;28;20487;-52
2023/08/13 18:32:40;;;;;;;9.20;5.70;;;;;;;23.09;48.56;98017.59;10375194;28;20458;-49
2023/08/13 18:37:39;;;;;;;7.80;5.93;;;;;;;22.87;49.41;98016.88;10374729;28;20056;-50
2023/08/13 18:42:41;;;;;;;9.63;6.13;;;;;;;22.73;49.76;98018.34;10368331;28;20483;-48
2023/08/13 18:47:40;;;;;;;9.82;6.45;;;;;;;22.52;50.00;98024.63;10369826;28;20484;-56
2023/08/13 18:52:40;;;;;;;10.57;6.57;;;;;;;22.39;49.71;98025.19;10376291;28;20056;-50
2023/08/13 18:57:39;;;;;;;11.05;5.88;;;;;;;22.21;49.94;98031.28;10376077;28;20094;-52
2023/08/13 19:02:39;;;;;;;10.38;5.75;;;;;;;22.09;49.94;98031.81;10372812;28;20035;-49
2023/08/13 19:07:38;;;;;;;11.43;6.43;;;;;;;21.88;50.41;98029.13;10371573;28;20075;-52
2023/08/13 19:12:37;;;;;;;9.13;5.95;;;;;;;21.78;50.89;98033.09;10341224;28;20099;-52
2023/08/13 19:17:36;;;;;;;7.72;6.30;;;;;;;21.68;51.71;98037.00;10328136;28;20041;-50
2023/08/13 19:22:35;;;;;;;9.82;6.30;;;;;;;21.57;52.04;98033.94;10327829;28;20561;-50
2023/08/13 19:27:34;;;;;;;7.18;5.30;;;;;;;21.46;51.74;98047.63;10326032;28;20768;-50
2023/08/13 19:32:33;;;;;;;11.73;6.97;;;;;;;21.30;53.79;98050.00;10326116;28;20033;-52
2023/08/13 19:37:32;;;;;;;12.25;6.55;;;;;;;21.13;54.79;98051.50;10327201;28;20143;-51
2023/08/13 19:42:32;;;;;;;11.63;6.97;;;;;;;21.07;55.29;98050.84;10331551;28;20068;-51
2023/08/13 19:47:31;;;;;;;15.02;7.43;;;;;;;21.07;55.18;98048.22;10326849;28;20021;-50
2023/08/13 19:52:30;;;;;;;12.20;7.53;;;;;;;20.96;56.34;98047.78;10328822;28;20070;-51
2023/08/13 19:57:29;;;;;;;8.30;6.68;;;;;;;20.92;56.80;98054.97;10330287;28;20029;-51
2023/08/13 20:02:28;;;;;;;9.77;6.70;;;;;;;20.74;57.42;98053.00;10329093;28;20501;-52
2023/08/13 20:07:27;;;;;;;11.43;7.10;;;;;;;20.40;57.91;98028.75;10328869;28;20508;-54
2023/08/13 20:12:27;;;;;;;11.50;7.60;;;;;;;20.42;58.69;98055.91;10327363;28;20116;-50
2023/08/13 20:17:26;;;;;;;10.80;7.40;;;;;;;20.23;59.40;98047.75;10329125;28;20045;-50
2023/08/13 20:22:25;;;;;;;11.52;7.55;;;;;;;20.01;60.89;98068.72;10326126;28;20470;-51
2023/08/13 20:27:24;;;;;;;11.57;7.30;;;;;;;19.95;61.33;98068.06;10327518;28;20420;-48
2023/08/13 20:32:23;;;;;;;10.77;7.50;;;;;;;19.84;61.57;98050.88;10328712;28;20049;-51
2023/08/13 20:37:23;;;;;;;12.73;7.78;;;;;;;19.81;61.45;98066.78;10328284;28;20033;-49
2023/08/13 20:42:22;;;;;;;11.23;7.38;;;;;;;19.75;61.68;98069.59;10326146;28;20067;-52
2023/08/13 20:47:22;;;;;;;9.77;7.90;;;;;;;19.67;62.03;98063.72;10324975;28;20026;-52
2023/08/13 20:52:21;;;;;;;10.57;7.32;;;;;;;19.57;62.64;98070.19;10327819;28;20112;-49
2023/08/13 20:57:21;;;;;;;9.75;6.55;;;;;;;19.48;62.79;98073.09;10325688;28;20021;-53
2023/08/13 21:02:20;;;;;;;8.38;6.28;;;;;;;19.40;62.22;98073.34;10330934;28;20144;-51
2023/08/13 21:07:19;;;;;;;17.38;10.75;;;;;;;19.17;62.01;98047.75;10328237;28;20061;-55
2023/08/13 21:12:18;;;;;;;25.08;16.40;;;;;;;19.26;63.85;98079.03;10328780;28;20052;-52
2023/08/13 21:17:17;;;;;;;23.90;16.00;;;;;;;19.21;64.04;98067.78;10330138;28;20045;-51
2023/08/13 21:22:16;;;;;;;22.17;15.18;;;;;;;19.12;64.69;98068.91;10331379;28;20032;-52
2023/08/13 21:27:15;;;;;;;19.48;12.95;;;;;;;18.97;65.30;98046.59;10328475;28;20021;-52
2023/08/13 21:32:13;;;;;;;10.32;7.32;;;;;;;18.98;65.53;98071.13;10329915;28;20448;-52
2023/08/13 21:37:12;;;;;;;10.50;7.32;;;;;;;18.70;66.55;98042.13;10328383;28;20052;-52
2023/08/13 21:42:11;;;;;;;11.32;7.68;;;;;;;18.74;68.06;98064.81;10327158;28;20107;-52
2023/08/13 21:47:10;;;;;;;11.73;8.05;;;;;;;18.74;67.71;98076.19;10330361;28;20017;-49
2023/08/13 21:52:09;;;;;;;9.95;7.45;;;;;;;18.60;68.93;98084.44;10327823;28;20036;-49
2023/08/13 21:57:08;;;;;;;11.00;8.20;;;;;;;18.61;68.94;98083.50;10328246;28;20049;-52
2023/08/13 22:02:07;;;;;;;9.68;7.05;;;;;;;18.48;69.43;98073.38;10323138;28;20049;-52
2023/08/13 22:07:06;;;;;;;10.38;8.52;;;;;;;18.43;69.63;98081.38;10325169;28;20070;-52
2023/08/13 22:12:06;;;;;;;10.95;7.80;;;;;;;18.38;70.45;98083.28;10321973;28;20141;-52
2023/08/13 22:17:05;;;;;;;12.30;8.52;;;;;;;18.31;70.33;98082.59;10322896;28;20756;-50
2023/08/13 22:22:04;;;;;;;10.32;7.72;;;;;;;18.26;70.89;98081.84;10331557;28;20124;-50
2023/08/13 22:27:03;;;;;;;14.35;8.43;;;;;;;18.21;70.89;98080.25;10331283;28;20117;-48
2023/08/13 22:32:03;;;;;;;11.85;9.40;;;;;;;18.11;70.99;98080.50;10333018;28;20080;-50
2023/08/13 22:37:02;;;;;;;10.85;8.25;;;;;;;17.93;71.86;98070.47;10332307;28;20056;-50
2023/08/13 22:42:01;;;;;;;10.10;8.40;;;;;;;17.90;73.07;98081.06;10332125;28;20029;-49
2023/08/13 22:47:00;;;;;;;10.98;7.72;;;;;;;17.89;73.68;98074.06;10330975;28;20060;-51
2023/08/13 22:52:01;;;;;;;11.70;7.25;;;;;;;17.69;73.02;98043.06;10331215;28;20038;-51
2023/08/13 22:57:02;;;;;;;13.15;8.82;;;;;;;17.90;72.46;98066.16;10326325;28;20480;-50
2023/08/13 23:02:02;;;;;;;14.35;11.52;;;;;;;18.02;72.57;98078.13;10328314;28;20061;-48
2023/08/13 23:07:01;;;;;;;14.20;11.18;;;;;;;18.06;72.36;98087.66;10332555;28;20076;-49
2023/08/13 23:12:00;;;;;;;12.25;10.18;;;;;;;18.11;72.17;98084.91;10331409;28;20036;-47
2023/08/13 23:16:59;;;;;;;16.05;9.50;;;;;;;18.16;72.09;98078.59;10328397;28;20033;-51